Time;durP1;ratioP1;P1;durP2;ratioP2;P2;SDS_P1;SDS_P2;PMS_P1;PMS_P2;Temp;Humidity;BMP_temperature;BMP_pressure;BME280_temperature;BME280_humidity;BME280_pressure;Samples;Min_cycle;Max_cycle;Signal;HPM_P1;HPM_P2
2021/01/30 00:01:16;;;;;;;0.70;0.60;;;8.20;99.90;;;;;;5084880;28;20655;-91
2021/01/30 00:03:43;;;;;;;1.37;0.70;;;8.20;99.90;;;;;;5089268;28;20639;-91
2021/01/30 00:06:09;;;;;;;1.93;0.70;;;8.20;99.90;;;;;;5089215;28;20724;-92
2021/01/30 00:08:36;;;;;;;2.10;0.70;;;8.20;99.90;;;;;;5087810;28;20636;-92
2021/01/30 00:11:03;;;;;;;2.00;0.70;;;8.20;99.90;;;;;;5089044;28;20647;-91
2021/01/30 00:13:29;;;;;;;4.33;0.70;;;8.10;99.90;;;;;;5087265;28;20613;-92
2021/01/30 00:15:57;;;;;;;1.90;1.00;;;8.20;99.90;;;;;;5073134;28;20992;-91
2021/01/30 00:18:25;;;;;;;2.23;1.40;;;8.10;99.90;;;;;;5068204;28;20670;-92
2021/01/30 00:20:53;;;;;;;1.43;0.90;;;8.20;99.90;;;;;;5085850;28;20665;-91
2021/01/30 00:23:20;;;;;;;1.50;0.70;;;8.10;99.90;;;;;;5088593;28;20632;-92
2021/01/30 00:25:46;;;;;;;1.70;0.67;;;8.10;99.90;;;;;;5087780;28;20666;-91
2021/01/30 00:28:14;;;;;;;4.67;0.93;;;8.30;99.90;;;;;;5084429;28;20630;-92
2021/01/30 00:30:40;;;;;;;2.43;0.87;;;8.20;99.90;;;;;;5088249;28;20674;-92
2021/01/30 00:33:08;;;;;;;1.37;0.73;;;8.20;99.90;;;;;;5087298;28;20624;-91
2021/01/30 00:35:35;;;;;;;1.57;0.80;;;8.20;99.90;;;;;;5085998;28;20637;-92
2021/01/30 00:38:02;;;;;;;1.27;0.80;;;8.20;99.90;;;;;;5079586;28;20709;-92
2021/01/30 00:40:29;;;;;;;1.60;0.70;;;8.20;99.90;;;;;;5083916;28;20672;-92
2021/01/30 00:42:55;;;;;;;1.93;0.73;;;8.10;99.90;;;;;;5084833;28;20636;-93
2021/01/30 00:45:25;;;;;;;1.00;0.80;;;8.10;99.90;;;;;;5091232;28;20656;-91
2021/01/30 00:47:52;;;;;;;1.53;0.90;;;8.10;99.90;;;;;;5089623;28;20581;-93
2021/01/30 00:50:20;;;;;;;1.17;0.80;;;8.10;99.90;;;;;;5088552;28;20659;-91
2021/01/30 00:52:47;;;;;;;1.90;0.70;;;8.10;99.90;;;;;;5085118;28;20639;-92
2021/01/30 00:55:18;;;;;;;3.43;0.60;;;8.10;99.90;;;;;;5082731;28;21040;-91
2021/01/30 00:57:44;;;;;;;2.40;0.97;;;8.10;99.90;;;;;;5081544;28;20629;-90
2021/01/30 01:00:14;;;;;;;1.53;0.80;;;8.00;99.90;;;;;;5086581;28;20749;-91
2021/01/30 01:02:40;;;;;;;2.60;1.37;;;8.00;99.90;;;;;;5087780;28;20639;-91
2021/01/30 01:05:08;;;;;;;2.93;0.73;;;8.00;99.90;;;;;;5089560;28;20659;-91
2021/01/30 01:07:35;;;;;;;0.60;0.50;;;8.00;99.90;;;;;;5086505;28;20702;-90
2021/01/30 01:10:01;;;;;;;2.83;0.73;;;8.00;99.90;;;;;;5092483;28;20645;-90
2021/01/30 01:12:27;;;;;;;4.03;0.60;;;8.10;99.90;;;;;;5091690;28;20616;-90
2021/01/30 01:14:54;;;;;;;0.90;0.60;;;8.10;99.90;;;;;;5085123;28;20656;-91
2021/01/30 01:17:21;;;;;;;2.30;0.83;;;8.10;99.90;;;;;;5082628;28;20945;-90
2021/01/30 01:19:48;;;;;;;2.37;1.17;;;8.10;99.90;;;;;;5087229;28;20894;-90
2021/01/30 01:22:17;;;;;;;2.67;1.20;;;8.00;99.90;;;;;;5082539;28;21251;-90
2021/01/30 01:24:44;;;;;;;1.47;0.90;;;7.90;99.90;;;;;;5085792;28;20656;-90
2021/01/30 01:27:11;;;;;;;2.70;1.00;;;7.80;99.90;;;;;;5089517;28;20639;-93
2021/01/30 01:29:37;;;;;;;2.20;1.37;;;7.80;99.90;;;;;;5085597;28;21108;-93
2021/01/30 01:32:04;;;;;;;2.53;1.23;;;7.80;99.90;;;;;;5088643;28;20616;-93
2021/01/30 01:34:31;;;;;;;0.70;0.63;;;7.80;99.90;;;;;;5111064;28;20604;-92
2021/01/30 01:37:00;;;;;;;1.40;0.93;;;7.80;99.90;;;;;;5095952;28;20615;-92
2021/01/30 01:39:27;;;;;;;2.03;1.10;;;7.80;99.90;;;;;;5092382;28;20620;-92
2021/01/30 01:42:09;;;;;;;2.60;0.97;;;7.90;99.90;;;;;;5100355;28;20609;-92
2021/01/30 01:44:36;;;;;;;1.83;0.97;;;7.90;99.90;;;;;;5112616;28;21143;-92
2021/01/30 01:47:04;;;;;;;1.07;0.53;;;7.90;99.90;;;;;;5108576;28;20713;-92
2021/01/30 01:49:33;;;;;;;2.00;0.93;;;7.90;99.90;;;;;;5107425;28;20653;-92
2021/01/30 01:52:21;;;;;;;3.73;0.97;;;8.00;99.90;;;;;;5088451;28;21057;-92
2021/01/30 01:54:51;;;;;;;2.27;0.57;;;7.90;99.90;;;;;;5092051;28;20977;-92
2021/01/30 01:57:19;;;;;;;2.00;0.57;;;7.90;99.90;;;;;;5084480;28;20639;-92
2021/01/30 01:59:49;;;;;;;1.83;0.63;;;7.90;99.90;;;;;;5085856;28;20667;-92
2021/01/30 02:02:16;;;;;;;0.60;0.53;;;7.90;99.90;;;;;;5084773;28;20672;-91
2021/01/30 02:04:47;;;;;;;1.37;0.50;;;7.90;99.90;;;;;;5085987;28;20652;-92
2021/01/30 02:07:14;;;;;;;1.53;0.43;;;7.90;99.90;;;;;;5084061;28;21134;-91
2021/01/30 02:09:40;;;;;;;0.90;0.43;;;8.00;99.90;;;;;;5085069;28;20668;-92
2021/01/30 02:12:12;;;;;;;1.40;0.60;;;8.00;99.90;;;;;;5086076;28;21055;-92
2021/01/30 02:14:44;;;;;;;1.00;0.70;;;7.90;99.90;;;;;;5088166;28;20626;-93
2021/01/30 02:17:21;;;;;;;1.07;0.67;;;7.90;99.90;;;;;;5084755;28;20612;-91
2021/01/30 02:20:31;;;;;;;1.77;0.63;;;7.90;99.90;;;;;;5083430;28;20652;-91
2021/01/30 02:23:27;;;;;;;1.43;0.53;;;7.90;99.90;;;;;;5086063;28;20646;-90
2021/01/30 02:26:20;;;;;;;2.10;0.63;;;7.80;99.90;;;;;;5085972;28;21005;-90
2021/01/30 02:29:01;;;;;;;0.90;0.47;;;7.80;99.90;;;;;;5093421;28;20658;-90
2021/01/30 02:32:00;;;;;;;1.60;1.13;;;7.70;99.90;;;;;;5087989;28;21241;-91
2021/01/30 02:34:46;;;;;;;0.87;0.30;;;7.70;99.90;;;;;;5089316;28;21224;-90
2021/01/30 02:37:20;;;;;;;2.00;0.50;;;7.60;99.90;;;;;;5087825;28;20643;-91
2021/01/30 02:39:52;;;;;;;2.60;1.60;;;7.60;99.90;;;;;;5087258;28;21019;-91
2021/01/30 02:42:23;;;;;;;0.93;0.67;;;7.60;99.90;;;;;;5090997;28;20648;-90
2021/01/30 02:44:58;;;;;;;1.83;0.50;;;7.60;99.90;;;;;;5090575;28;20693;-90
2021/01/30 02:47:29;;;;;;;1.60;0.40;;;7.60;99.90;;;;;;5086647;28;21186;-90
2021/01/30 02:50:02;;;;;;;1.07;0.50;;;7.60;99.90;;;;;;5087012;28;20656;-91
2021/01/30 02:52:32;;;;;;;2.13;0.87;;;7.60;99.90;;;;;;5088550;28;21003;-90
2021/01/30 02:54:59;;;;;;;1.27;0.90;;;7.80;99.90;;;;;;5090784;28;21159;-91
2021/01/30 02:57:29;;;;;;;1.50;0.60;;;7.50;99.90;;;;;;5074161;28;20717;-91
2021/01/30 03:00:00;;;;;;;1.10;0.70;;;7.50;99.90;;;;;;5089257;28;21005;-90
2021/01/30 03:02:28;;;;;;;1.27;1.10;;;7.40;99.90;;;;;;5089747;28;21016;-90
2021/01/30 03:04:57;;;;;;;0.90;0.57;;;7.40;99.90;;;;;;5090423;28;21433;-91
2021/01/30 03:07:41;;;;;;;0.87;0.50;;;7.40;99.90;;;;;;5082495;28;20649;-91
2021/01/30 03:10:13;;;;;;;1.40;1.00;;;7.30;99.90;;;;;;5089354;28;21141;-90
2021/01/30 03:12:49;;;;;;;2.13;0.80;;;7.30;99.90;;;;;;5084234;28;20689;-89
2021/01/30 03:15:21;;;;;;;1.87;0.60;;;7.20;99.90;;;;;;5085071;28;20700;-92
2021/01/30 03:17:49;;;;;;;0.63;0.47;;;7.20;99.90;;;;;;5087368;28;20676;-91
2021/01/30 03:20:17;;;;;;;1.77;0.90;;;7.20;99.90;;;;;;5076156;28;21178;-91
2021/01/30 03:22:45;;;;;;;2.90;0.77;;;7.20;99.90;;;;;;5086802;28;20659;-91
2021/01/30 03:25:14;;;;;;;1.10;0.50;;;7.20;99.90;;;;;;5090419;28;20660;-91
2021/01/30 03:27:40;;;;;;;0.80;0.50;;;7.30;99.90;;;;;;5082619;28;20713;-91
2021/01/30 03:30:10;;;;;;;1.43;0.57;;;7.30;99.90;;;;;;5086791;28;20654;-91
2021/01/30 03:32:37;;;;;;;1.00;0.50;;;7.20;99.90;;;;;;5080740;28;21273;-91
2021/01/30 03:35:11;;;;;;;0.93;0.40;;;7.20;99.90;;;;;;5089708;28;20618;-91
2021/01/30 03:37:38;;;;;;;1.50;0.50;;;7.30;99.90;;;;;;5090898;28;20700;-91
2021/01/30 03:40:08;;;;;;;1.17;0.57;;;7.30;99.90;;;;;;5076457;28;20751;-91
2021/01/30 03:42:34;;;;;;;0.73;0.53;;;7.30;99.90;;;;;;5088841;28;20640;-90
2021/01/30 03:45:01;;;;;;;1.80;0.80;;;7.30;99.90;;;;;;5083881;28;20655;-90
2021/01/30 03:47:27;;;;;;;0.60;0.40;;;7.30;99.90;;;;;;5084594;28;20823;-89
2021/01/30 03:49:54;;;;;;;0.93;0.40;;;7.20;99.90;;;;;;5089713;28;20624;-91
2021/01/30 03:52:20;;;;;;;0.70;0.50;;;7.30;99.90;;;;;;5073245;28;21155;-92
2021/01/30 03:54:49;;;;;;;1.10;0.50;;;7.30;99.90;;;;;;5085037;28;20629;-92
2021/01/30 03:57:17;;;;;;;0.90;0.30;;;7.30;99.90;;;;;;5083128;28;21143;-93
2021/01/30 03:59:43;;;;;;;0.70;0.43;;;7.30;99.90;;;;;;5085205;28;20831;-95
2021/01/30 04:02:11;;;;;;;0.50;0.37;;;7.30;99.90;;;;;;5088404;28;20632;-94
2021/01/30 04:04:37;;;;;;;1.10;0.60;;;7.20;99.90;;;;;;5082831;28;20647;-92
2021/01/30 04:07:04;;;;;;;0.50;0.40;;;7.30;99.90;;;;;;5089899;28;20664;-93
2021/01/30 04:09:32;;;;;;;0.80;0.40;;;7.30;99.90;;;;;;5087022;28;21215;-93
2021/01/30 04:11:59;;;;;;;1.07;0.50;;;7.30;99.90;;;;;;5090587;28;20640;-93
2021/01/30 04:14:26;;;;;;;2.10;0.60;;;7.30;99.90;;;;;;5085792;28;20628;-93
2021/01/30 04:16:53;;;;;;;1.33;0.60;;;7.30;99.90;;;;;;5088210;28;20663;-93
2021/01/30 04:19:20;;;;;;;0.80;0.43;;;7.30;99.90;;;;;;5087746;28;20672;-92
2021/01/30 04:21:47;;;;;;;1.90;0.50;;;7.30;99.90;;;;;;5086711;28;20641;-92
2021/01/30 04:24:14;;;;;;;0.83;0.40;;;7.30;99.90;;;;;;5087335;28;20648;-92
2021/01/30 04:26:41;;;;;;;1.57;0.50;;;7.30;99.90;;;;;;5089284;28;20643;-94
2021/01/30 04:29:07;;;;;;;0.87;0.50;;;7.20;99.90;;;;;;5086058;28;20677;-94
2021/01/30 04:31:35;;;;;;;0.73;0.67;;;7.20;99.90;;;;;;5083015;28;20633;-94
2021/01/30 04:34:01;;;;;;;1.03;0.77;;;7.10;99.90;;;;;;5088386;28;21108;-92
2021/01/30 04:36:28;;;;;;;0.70;0.50;;;7.10;99.90;;;;;;5089877;28;20624;-92
2021/01/30 04:38:54;;;;;;;0.77;0.60;;;7.20;99.90;;;;;;5087819;28;20700;-93
2021/01/30 04:41:34;;;;;;;1.70;0.50;;;7.10;99.90;;;;;;5088094;28;21190;-93
2021/01/30 04:44:09;;;;;;;1.43;0.83;;;7.20;99.90;;;;;;5086956;28;20620;-92
2021/01/30 04:46:50;;;;;;;0.60;0.47;;;7.10;99.90;;;;;;5087117;28;20658;-95
2021/01/30 04:49:27;;;;;;;1.63;0.57;;;7.10;99.90;;;;;;5072057;28;20666;-95
2021/01/30 04:51:59;;;;;;;0.87;0.60;;;7.10;99.90;;;;;;5086148;28;20628;-94
2021/01/30 04:54:49;;;;;;;1.53;1.13;;;7.20;99.90;;;;;;5085981;28;20656;-93
2021/01/30 04:57:37;;;;;;;2.57;0.70;;;7.30;99.90;;;;;;5086683;28;20673;-91
2021/01/30 05:00:30;;;;;;;1.60;0.70;;;7.20;99.90;;;;;;5093127;28;20592;-92
2021/01/30 05:03:13;;;;;;;5.17;0.60;;;7.30;99.90;;;;;;5110232;28;20621;-91
2021/01/30 05:05:44;;;;;;;4.10;0.77;;;7.20;99.90;;;;;;5100654;28;20656;-92
2021/01/30 05:08:15;;;;;;;0.83;0.53;;;7.30;99.90;;;;;;5100430;28;20713;-92
2021/01/30 05:10:45;;;;;;;2.30;1.13;;;7.40;99.90;;;;;;5072295;28;20627;-91
2021/01/30 05:13:18;;;;;;;1.00;0.40;;;7.20;99.90;;;;;;5087140;28;20662;-91
2021/01/30 05:15:52;;;;;;;2.20;0.70;;;7.30;99.90;;;;;;5087439;28;20635;-92
2021/01/30 05:18:27;;;;;;;1.43;0.70;;;7.30;99.90;;;;;;5086700;28;20632;-91
2021/01/30 05:21:02;;;;;;;1.63;0.40;;;7.30;99.90;;;;;;5087785;28;20716;-90
2021/01/30 05:23:28;;;;;;;0.80;0.50;;;7.30;99.90;;;;;;5086932;28;20688;-90
2021/01/30 05:26:02;;;;;;;1.50;0.90;;;7.20;99.90;;;;;;5086545;28;20736;-91
2021/01/30 05:28:38;;;;;;;3.50;0.87;;;7.20;99.90;;;;;;5086194;28;20659;-91
2021/01/30 05:31:23;;;;;;;1.33;0.53;;;7.20;99.90;;;;;;5085416;28;20709;-93
2021/01/30 05:34:10;;;;;;;2.60;0.70;;;7.20;99.90;;;;;;5086642;28;21146;-92
2021/01/30 05:36:54;;;;;;;0.73;0.50;;;7.10;99.90;;;;;;5083812;28;20655;-92
2021/01/30 05:39:43;;;;;;;0.70;0.70;;;7.20;99.90;;;;;;5087365;28;20667;-92
2021/01/30 05:42:16;;;;;;;2.27;0.60;;;7.20;99.90;;;;;;5086491;28;20624;-91
2021/01/30 05:44:48;;;;;;;4.23;1.00;;;7.20;99.90;;;;;;5085109;28;20667;-92
2021/01/30 05:47:19;;;;;;;1.27;0.77;;;7.20;99.90;;;;;;5082610;28;21215;-93
2021/01/30 05:50:00;;;;;;;1.33;0.70;;;7.20;99.90;;;;;;5082664;28;20660;-93
2021/01/30 05:52:30;;;;;;;2.50;1.10;;;7.20;99.90;;;;;;5084752;28;20632;-91
2021/01/30 05:54:58;;;;;;;3.50;0.90;;;7.20;99.90;;;;;;5084230;28;20947;-92
2021/01/30 05:57:25;;;;;;;2.37;0.73;;;7.10;99.90;;;;;;5084321;28;20628;-92
2021/01/30 05:59:56;;;;;;;2.63;1.00;;;7.10;99.90;;;;;;5088957;28;21046;-93
2021/01/30 06:02:25;;;;;;;4.00;0.70;;;7.10;99.90;;;;;;5091736;28;20635;-92
2021/01/30 06:04:54;;;;;;;5.67;1.10;;;7.10;99.90;;;;;;5073225;28;20707;-91
2021/01/30 06:07:34;;;;;;;2.73;1.50;;;7.10;99.90;;;;;;5092949;28;20624;-91
2021/01/30 06:10:26;;;;;;;5.37;1.07;;;7.10;99.90;;;;;;5090608;28;21023;-91
2021/01/30 06:13:07;;;;;;;10.83;6.37;;;7.10;99.90;;;;;;5087580;28;20725;-92
2021/01/30 06:15:38;;;;;;;4.57;1.60;;;7.10;99.90;;;;;;5090495;28;20641;-92
2021/01/30 06:18:38;;;;;;;5.73;3.70;;;7.00;99.90;;;;;;5091192;28;20654;-92
2021/01/30 06:21:19;;;;;;;5.03;1.10;;;7.10;99.90;;;;;;5090417;28;20655;-92
2021/01/30 06:24:02;;;;;;;10.20;2.00;;;7.10;99.90;;;;;;5074590;28;20650;-92
2021/01/30 06:26:42;;;;;;;1.67;1.00;;;7.00;99.90;;;;;;5089947;28;20640;-91
2021/01/30 06:29:39;;;;;;;5.87;1.30;;;7.00;99.90;;;;;;5085910;28;21301;-92
2021/01/30 06:32:32;;;;;;;3.47;1.67;;;7.00;99.90;;;;;;5087296;28;21047;-92
2021/01/30 06:35:25;;;;;;;7.20;1.80;;;7.00;99.90;;;;;;5089274;28;20644;-92
2021/01/30 06:38:11;;;;;;;3.90;1.17;;;7.00;99.90;;;;;;5088282;28;20759;-91
2021/01/30 06:41:03;;;;;;;4.03;1.10;;;6.90;99.90;;;;;;5082801;28;21521;-91
2021/01/30 06:43:34;;;;;;;6.80;1.27;;;7.00;99.90;;;;;;5076353;28;21019;-92
2021/01/30 06:46:14;;;;;;;6.90;1.43;;;7.00;99.90;;;;;;5087363;28;20687;-91
2021/01/30 06:48:46;;;;;;;2.67;1.30;;;7.00;99.90;;;;;;5088027;28;20643;-93
2021/01/30 06:51:36;;;;;;;5.90;1.73;;;7.00;99.90;;;;;;5089233;28;20735;-92
2021/01/30 06:54:40;;;;;;;;;;;;;;;;;;;;;
2021/01/30 07:05:03;;;;;;;6.17;1.67;;;7.00;99.90;;;;;;4929291;28;20679;-90
2021/01/30 07:11:41;;;;;;;4.80;2.20;;;7.10;99.90;;;;;;4996444;28;20899;-92
2021/01/30 07:14:19;;;;;;;4.10;1.60;;;7.50;99.90;;;;;;5018980;28;20667;-93
2021/01/30 07:16:56;;;;;;;7.97;2.37;;;7.40;99.90;;;;;;5073203;28;20689;-92
2021/01/30 07:19:34;;;;;;;5.00;1.57;;;7.40;99.90;;;;;;5091612;28;20996;-92
2021/01/30 07:22:05;;;;;;;6.03;1.50;;;7.30;99.90;;;;;;5087670;28;20643;-92
2021/01/30 07:24:42;;;;;;;5.43;2.70;;;7.30;99.90;;;;;;5075252;28;20671;-93
2021/01/30 07:27:20;;;;;;;6.93;2.57;;;7.30;99.90;;;;;;5080857;28;20623;-93
2021/01/30 07:29:52;;;;;;;6.60;2.50;;;7.40;99.90;;;;;;5107505;28;20621;-92
2021/01/30 07:32:36;;;;;;;12.03;2.57;;;7.40;99.90;;;;;;5112411;28;20677;-93
2021/01/30 07:35:13;;;;;;;8.83;1.90;;;7.40;99.90;;;;;;5113077;28;20692;-93
2021/01/30 07:37:49;;;;;;;8.50;3.10;;;7.40;99.90;;;;;;5114621;28;20651;-92
2021/01/30 07:40:31;;;;;;;6.57;2.17;;;7.40;99.90;;;;;;5109162;28;20631;-93
2021/01/30 07:43:03;;;;;;;10.57;2.37;;;7.30;99.90;;;;;;5109577;28;20620;-93
2021/01/30 07:45:35;;;;;;;4.63;1.77;;;7.40;99.90;;;;;;5110968;28;20782;-91
2021/01/30 07:48:10;;;;;;;8.73;2.43;;;7.40;99.90;;;;;;5092605;28;20634;-92
2021/01/30 07:50:42;;;;;;;4.60;2.33;;;7.40;99.90;;;;;;5101144;28;20652;-92
2021/01/30 07:53:12;;;;;;;5.83;2.17;;;7.40;99.90;;;;;;5094625;28;20615;-92
2021/01/30 07:55:46;;;;;;;7.90;3.10;;;7.50;99.90;;;;;;5096802;28;20616;-93
2021/01/30 07:58:26;;;;;;;6.47;2.20;;;7.50;99.90;;;;;;5081516;28;20624;-93
2021/01/30 08:01:17;;;;;;;7.83;2.10;;;7.60;99.90;;;;;;5094250;28;20719;-92
2021/01/30 08:04:04;;;;;;;7.80;2.10;;;7.60;99.90;;;;;;5065017;28;20687;-92
2021/01/30 08:06:40;;;;;;;5.93;1.97;;;7.60;99.90;;;;;;5098725;28;20672;-91
2021/01/30 08:09:17;;;;;;;5.47;2.87;;;7.80;99.90;;;;;;5101619;28;21030;-91
2021/01/30 08:11:52;;;;;;;10.40;6.70;;;7.80;99.90;;;;;;5090442;28;20646;-93
2021/01/30 08:14:29;;;;;;;14.20;8.10;;;7.80;99.90;;;;;;5092478;28;20584;-92
2021/01/30 08:17:05;;;;;;;11.47;6.43;;;7.90;99.90;;;;;;5090483;28;20679;-93
2021/01/30 08:19:44;;;;;;;8.00;5.30;;;8.00;99.90;;;;;;5088584;28;20644;-93
2021/01/30 08:22:25;;;;;;;14.60;7.10;;;8.00;99.90;;;;;;5087416;28;20636;-92
2021/01/30 08:24:56;;;;;;;9.30;3.47;;;8.00;99.90;;;;;;5093350;28;20671;-95
2021/01/30 08:27:27;;;;;;;6.60;3.10;;;8.00;99.90;;;;;;5091439;28;20644;-93
2021/01/30 08:30:00;;;;;;;10.30;2.80;;;8.10;99.90;;;;;;5094803;28;20670;-92
2021/01/30 08:32:36;;;;;;;7.67;2.20;;;8.00;99.90;;;;;;5089056;28;20612;-93
2021/01/30 08:35:40;;;;;;;8.00;2.63;;;8.00;99.90;;;;;;5091415;28;20628;-92
2021/01/30 08:38:11;;;;;;;8.37;2.97;;;8.10;99.90;;;;;;5087598;28;20691;-90
2021/01/30 08:40:52;;;;;;;9.80;2.90;;;8.00;99.90;;;;;;5088465;28;20991;-91
2021/01/30 08:43:34;;;;;;;6.43;2.20;;;8.10;99.90;;;;;;5088232;28;20618;-91
2021/01/30 08:46:25;;;;;;;5.00;3.00;;;8.10;99.90;;;;;;5084235;28;21064;-91
2021/01/30 08:49:05;;;;;;;5.13;2.27;;;8.10;99.90;;;;;;5086543;28;20656;-90
2021/01/30 08:51:33;;;;;;;5.90;1.83;;;8.10;99.90;;;;;;5084620;28;20640;-89
2021/01/30 08:54:20;;;;;;;7.67;2.60;;;8.10;99.90;;;;;;5082293;28;21163;-91
2021/01/30 08:56:50;;;;;;;5.53;2.13;;;8.10;99.90;;;;;;5092309;28;20640;-93
2021/01/30 08:59:43;;;;;;;9.23;2.20;;;8.10;99.90;;;;;;5094256;28;20644;-93
2021/01/30 09:02:53;;;;;;;10.13;2.50;;;8.10;99.90;;;;;;5087416;28;20639;-94
2021/01/30 09:05:42;;;;;;;7.20;2.60;;;8.10;99.90;;;;;;5075044;28;20663;-93
2021/01/30 09:08:38;;;;;;;8.43;2.23;;;8.20;99.90;;;;;;5076789;28;20622;-92
2021/01/30 09:11:40;;;;;;;6.37;2.03;;;8.10;99.90;;;;;;5084239;28;20636;-92
2021/01/30 09:14:33;;;;;;;6.80;2.53;;;8.20;99.90;;;;;;5089145;28;20624;-92
2021/01/30 09:17:37;;;;;;;9.33;2.63;;;8.20;99.90;;;;;;5089078;28;20627;-92
2021/01/30 09:20:19;;;;;;;7.00;2.73;;;8.30;99.90;;;;;;5087910;28;20668;-92
2021/01/30 09:23:18;;;;;;;8.90;2.90;;;8.40;99.90;;;;;;5104699;28;20707;-93
2021/01/30 09:25:56;;;;;;;13.70;3.83;;;8.50;99.90;;;;;;5105402;28;20636;-93
2021/01/30 09:28:27;;;;;;;8.10;2.83;;;8.50;99.90;;;;;;5112339;28;20656;-92
2021/01/30 09:30:58;;;;;;;14.40;2.73;;;8.50;99.90;;;;;;5106303;28;20656;-94
2021/01/30 09:33:29;;;;;;;7.30;2.07;;;8.60;99.90;;;;;;5108752;28;20644;-93
2021/01/30 09:36:08;;;;;;;5.73;2.33;;;8.60;99.90;;;;;;5106927;28;20604;-93
2021/01/30 09:38:47;;;;;;;7.33;2.87;;;8.60;99.90;;;;;;5088734;28;20666;-94
2021/01/30 09:41:19;;;;;;;6.10;2.50;;;8.60;99.90;;;;;;5089087;28;21183;-92
2021/01/30 09:43:47;;;;;;;8.43;2.33;;;8.70;99.90;;;;;;5087733;28;20638;-93
2021/01/30 09:46:20;;;;;;;8.07;2.20;;;8.70;99.90;;;;;;5092549;28;20660;-93
2021/01/30 09:48:50;;;;;;;5.43;2.20;;;8.70;99.90;;;;;;5089928;28;20663;-93
2021/01/30 09:51:19;;;;;;;8.33;2.77;;;8.80;99.90;;;;;;5086739;28;20624;-93
2021/01/30 09:53:53;;;;;;;10.23;2.90;;;8.80;99.90;;;;;;5069508;28;20640;-93
2021/01/30 09:56:22;;;;;;;6.50;1.90;;;9.10;99.90;;;;;;5086605;28;20592;-93
2021/01/30 09:58:59;;;;;;;11.07;2.37;;;8.90;99.90;;;;;;5086754;28;20717;-92
2021/01/30 10:01:30;;;;;;;9.00;3.00;;;8.90;99.90;;;;;;5086664;28;20642;-92
2021/01/30 10:03:57;;;;;;;11.17;4.90;;;8.90;99.90;;;;;;5089725;28;20628;-92
2021/01/30 10:06:30;;;;;;;7.30;2.40;;;8.90;99.90;;;;;;5088790;28;20660;-93
2021/01/30 10:09:08;;;;;;;10.57;3.60;;;9.00;99.90;;;;;;5089675;28;20664;-93
2021/01/30 10:11:37;;;;;;;10.97;3.33;;;9.10;99.90;;;;;;5088816;28;20645;-92
2021/01/30 10:14:06;;;;;;;12.37;4.90;;;9.30;99.90;;;;;;5084858;28;20627;-92
2021/01/30 10:16:33;;;;;;;6.87;2.00;;;9.30;99.90;;;;;;5087719;28;20622;-93
2021/01/30 10:19:07;;;;;;;7.10;2.10;;;9.30;99.90;;;;;;5086045;28;21226;-92
2021/01/30 10:21:38;;;;;;;4.23;1.83;;;9.40;99.90;;;;;;5087096;28;20639;-92
2021/01/30 10:24:17;;;;;;;8.63;2.83;;;9.50;99.90;;;;;;5085161;28;20642;-92
2021/01/30 10:26:44;;;;;;;16.30;5.37;;;9.40;99.90;;;;;;5085265;28;20664;-90
2021/01/30 10:29:13;;;;;;;12.70;4.27;;;9.60;99.90;;;;;;5088937;28;20647;-93
2021/01/30 10:31:43;;;;;;;7.57;2.60;;;9.70;99.90;;;;;;5083285;28;21285;-92
2021/01/30 10:34:20;;;;;;;12.77;2.17;;;9.70;99.90;;;;;;5089300;28;20685;-92
2021/01/30 10:36:54;;;;;;;9.17;2.77;;;9.60;99.90;;;;;;5089580;28;21180;-92
2021/01/30 10:39:22;;;;;;;9.83;2.50;;;9.60;99.90;;;;;;5094497;28;20693;-93
2021/01/30 10:41:50;;;;;;;8.20;2.63;;;9.60;99.90;;;;;;5112247;28;20653;-91
2021/01/30 10:44:24;;;;;;;10.67;3.47;;;9.60;99.90;;;;;;5111302;28;20627;-93
2021/01/30 10:46:57;;;;;;;6.70;2.17;;;9.50;99.90;;;;;;5111360;28;20899;-93
2021/01/30 10:49:31;;;;;;;10.70;2.27;;;9.40;99.90;;;;;;5114845;28;20719;-95
2021/01/30 10:52:07;;;;;;;10.33;2.80;;;9.50;99.90;;;;;;5112298;28;20726;-92
2021/01/30 10:54:36;;;;;;;4.80;2.00;;;9.50;99.90;;;;;;5114614;28;20632;-92
2021/01/30 10:57:28;;;;;;;5.83;1.90;;;9.40;99.90;;;;;;5110292;28;20711;-93
2021/01/30 10:59:57;;;;;;;5.73;2.00;;;9.20;99.90;;;;;;5093054;28;20630;-92
2021/01/30 11:02:41;;;;;;;6.53;1.63;;;9.30;99.90;;;;;;5114358;28;20620;-93
2021/01/30 11:05:13;;;;;;;6.63;3.80;;;9.30;99.90;;;;;;5111428;28;20678;-91
2021/01/30 11:07:48;;;;;;;6.90;1.77;;;9.30;99.90;;;;;;5116263;28;20603;-92
2021/01/30 11:10:40;;;;;;;6.60;1.90;;;9.20;99.90;;;;;;5113639;28;21095;-93
2021/01/30 11:13:15;;;;;;;9.53;2.50;;;9.20;99.90;;;;;;5106065;28;20624;-93
2021/01/30 11:15:50;;;;;;;7.07;2.07;;;9.30;99.90;;;;;;5110426;28;20637;-91
2021/01/30 11:21:42;;;;;;;6.03;2.00;;;9.40;99.90;;;;;;5108304;28;20649;-92
2021/01/30 11:24:26;;;;;;;2.90;1.70;;;9.40;99.90;;;;;;5109386;28;20640;-91
2021/01/30 11:26:53;;;;;;;6.23;1.80;;;9.40;99.90;;;;;;5105630;28;21096;-94
2021/01/30 11:29:35;;;;;;;8.03;3.07;;;9.40;99.90;;;;;;5096540;28;20647;-92
2021/01/30 11:32:20;;;;;;;9.63;2.53;;;9.60;99.90;;;;;;5099836;28;21238;-93
2021/01/30 11:34:54;;;;;;;7.00;2.20;;;9.60;99.90;;;;;;5090121;28;20662;-91
2021/01/30 11:37:22;;;;;;;5.37;1.90;;;9.50;99.90;;;;;;5101722;28;20638;-91
2021/01/30 11:39:49;;;;;;;9.03;2.80;;;9.50;99.90;;;;;;5105028;28;20648;-92
2021/01/30 11:42:18;;;;;;;7.00;2.27;;;9.50;99.90;;;;;;5087140;28;20580;-91
2021/01/30 11:44:49;;;;;;;11.00;2.90;;;9.60;99.90;;;;;;5105871;28;20702;-92
2021/01/30 11:47:17;;;;;;;10.33;2.77;;;9.50;99.90;;;;;;5109297;28;20625;-92
2021/01/30 11:49:47;;;;;;;8.97;3.10;;;9.40;99.90;;;;;;5109146;28;20640;-92
2021/01/30 11:52:17;;;;;;;6.13;2.90;;;9.40;99.90;;;;;;5111822;28;20629;-93
2021/01/30 11:54:47;;;;;;;6.93;2.50;;;9.50;99.90;;;;;;5111183;28;20604;-92
2021/01/30 11:57:17;;;;;;;10.27;2.70;;;9.30;99.90;;;;;;5108236;28;20808;-92
2021/01/30 11:59:46;;;;;;;9.23;3.37;;;9.40;99.90;;;;;;5110883;28;20651;-93
2021/01/30 12:02:20;;;;;;;14.20;4.67;;;9.80;99.90;;;;;;5106106;28;20762;-95
2021/01/30 12:04:46;;;;;;;9.03;2.53;;;9.40;99.90;;;;;;5102621;28;20638;-93
2021/01/30 12:07:13;;;;;;;8.23;2.43;;;9.40;99.90;;;;;;5098654;28;20632;-92
2021/01/30 12:09:41;;;;;;;9.43;3.80;;;9.40;99.90;;;;;;5094594;28;20684;-92
2021/01/30 12:12:15;;;;;;;7.93;2.93;;;9.30;99.90;;;;;;5093251;28;20596;-92
2021/01/30 12:14:41;;;;;;;4.80;2.30;;;9.30;99.90;;;;;;5093749;28;20726;-94
2021/01/30 12:17:12;;;;;;;8.63;2.30;;;9.20;99.90;;;;;;5090451;28;20639;-91
2021/01/30 12:19:38;;;;;;;9.17;2.40;;;9.30;99.90;;;;;;5087297;28;20666;-93
2021/01/30 12:22:05;;;;;;;9.20;2.90;;;9.40;99.90;;;;;;5089390;28;20667;-91
2021/01/30 12:24:33;;;;;;;11.80;2.43;;;9.30;99.90;;;;;;5090833;28;21167;-91
2021/01/30 12:26:59;;;;;;;7.87;2.00;;;9.20;99.90;;;;;;5089294;28;20682;-92
2021/01/30 12:29:30;;;;;;;5.53;2.40;;;9.20;99.90;;;;;;5089010;28;21066;-91
2021/01/30 12:34:48;;;;;;;5.70;2.17;;;9.10;99.90;;;;;;5091989;28;20731;-91
2021/01/30 12:37:14;;;;;;;7.67;2.27;;;9.10;99.90;;;;;;5090219;28;20853;-92
2021/01/30 12:39:40;;;;;;;6.70;2.30;;;9.10;99.90;;;;;;5092771;28;20671;-92
2021/01/30 12:42:07;;;;;;;4.70;2.63;;;9.00;99.90;;;;;;5090876;28;20632;-92
2021/01/30 12:44:35;;;;;;;7.53;2.57;;;8.90;99.90;;;;;;5086430;28;21147;-92
2021/01/30 12:47:02;;;;;;;5.53;2.50;;;8.90;99.90;;;;;;5087302;28;20683;-91
2021/01/30 12:49:30;;;;;;;6.93;2.30;;;8.80;99.90;;;;;;5089392;28;20659;-91
2021/01/30 12:51:57;;;;;;;9.30;2.80;;;8.90;99.90;;;;;;5087518;28;20639;-94
2021/01/30 12:54:25;;;;;;;6.80;2.57;;;8.90;99.90;;;;;;5091276;28;20769;-92
2021/01/30 12:56:52;;;;;;;5.17;2.50;;;8.80;99.90;;;;;;5086656;28;20635;-93
2021/01/30 12:59:18;;;;;;;5.37;2.20;;;8.70;99.90;;;;;;5097832;28;20636;-92
2021/01/30 13:01:46;;;;;;;7.37;2.40;;;8.70;99.90;;;;;;5091363;28;21170;-93
2021/01/30 13:07:03;;;;;;;9.83;2.70;;;8.60;99.90;;;;;;5096711;28;20687;-94
2021/01/30 13:09:33;;;;;;;5.37;2.07;;;8.40;99.90;;;;;;5101691;28;20655;-94
2021/01/30 13:12:00;;;;;;;5.77;2.70;;;8.50;99.90;;;;;;5090416;28;20620;-94
2021/01/30 13:14:28;;;;;;;9.30;3.80;;;8.50;99.90;;;;;;5092587;28;20642;-94
2021/01/30 13:16:58;;;;;;;9.50;5.50;;;8.40;99.90;;;;;;5077358;28;20621;-94
2021/01/30 13:19:24;;;;;;;7.90;5.13;;;8.50;99.90;;;;;;5068367;28;20669;-94
2021/01/30 13:21:51;;;;;;;7.20;3.30;;;8.40;99.90;;;;;;5096054;28;20600;-96
2021/01/30 13:24:18;;;;;;;6.10;3.47;;;8.40;99.90;;;;;;5079293;28;20604;-93
2021/01/30 13:26:47;;;;;;;8.60;3.90;;;8.30;99.90;;;;;;5092421;28;20659;-92
2021/01/30 13:29:19;;;;;;;6.03;2.20;;;8.20;99.90;;;;;;5094745;28;21355;-93
2021/01/30 13:31:52;;;;;;;11.40;5.50;;;8.20;99.90;;;;;;5092922;28;20650;-92
2021/01/30 13:34:28;;;;;;;12.73;3.20;;;8.10;99.90;;;;;;5091256;28;20616;-93
2021/01/30 13:36:56;;;;;;;15.63;4.60;;;8.10;99.90;;;;;;5092700;28;20667;-93
2021/01/30 13:39:23;;;;;;;12.13;3.90;;;8.10;99.90;;;;;;5090271;28;20664;-93
2021/01/30 13:41:55;;;;;;;8.00;2.43;;;8.00;99.90;;;;;;5087316;28;20628;-92
2021/01/30 13:44:24;;;;;;;7.43;2.87;;;8.10;99.90;;;;;;5088663;28;21134;-94
2021/01/30 13:46:54;;;;;;;10.00;3.93;;;8.10;99.90;;;;;;5094334;28;20964;-94
2021/01/30 13:49:22;;;;;;;6.43;2.77;;;8.10;99.90;;;;;;5097159;28;20670;-93
2021/01/30 13:51:48;;;;;;;6.27;2.17;;;8.10;99.90;;;;;;5094696;28;20632;-94